Fort Myers Beach, Florida
Current Conditions -  °F | °C
As of 2:53 PM on Friday 19 Dec 2014 (Local Time) from KFMY Reporting Station
Clear Clear  
Wind Chill: 77°   Ceiling: Unl
Heat Index: 78°   Visibility: 10mi
Dew Point: 47°   Wind: 0mph
Humidity: 34%   Direction: NA
Pressure: 30.03"   Gusts: NA
Location:  26.45°N, 81.94°W
Report Text: KFMY 191953Z 00000KT 10SM CLR 25/08 A3003 RMK AO2 SLP170 T02500083
Loading
Personal Weather Stations






























Interactive Weather Map New forecast layout! Learn more

10-Day Weather Forecast

Advertisements
Track Severe Weather on mobile